Four Corners Regional Airport
KFMN : now visible

Airfield :











YOU CAN JOIN US ON...

 
LOGIN :

Register | Disclaimer

   EN    FR    IT 

 









Legend :    VFR   Marginal VFR   IFR   Intensive IFR   Very Intensive IFR
Visi :
Ceiling :
>= 8 km
>= 3000ft
5 to 8 km
1000 to 3000 ft
1500m to 5 km
500 to 1000 ft
800 to 1500m
200 to 500 ft
< 800m
< 200 ft
Symbols :   Thunderstorms  Fog  Heavy snow  Heavy precipitations  Wind > 20 kt






- Airport Elevation : 5506 ft


KFMN - Four Corners Regional

CURRENT METAR :
  • 042353Z 31013G26KT 10SM CLR 34/03 A3009 RMK AO2 PK WND 32027/2258 SLP120 T03390028 10350 20278 56013

EXPIRED METARs :
  • 042253Z 34013G20KT 10SM CLR 35/03 A3009 RMK AO2 SLP119 T03500028
  • 042153Z 29015G20KT 10SM CLR 34/M01 A3012 RMK AO2 PK WND 31027/2112 WSHFT 2047 SLP124 T03441006

TAF KFMN
Valid from the 05 at 00:00 until the 06 at 00:00 UTC


042337Z 0500/0524 33015G22KT P6SM FEW100
FM050200 32010G16KT P6SM FEW100
FM050600 08010KT P6SM SKC
FM051700 21006KT P6SM SKC
FM052000 27012G18KT P6SM FEW100
FM052300 35006KT P6SM FEW100
KZDV FIR / North America



MET'MAP, your aeronautical weather chart ! - Copyright ORBIFLY December 2007 - Disclaimer

ORBIFLY MET'MAP TEAM :

Programming & Development : Alexandra Zaïnal
Concept & original design : Baudouin d'Aumeries
Assistance for programming : Marc-Olivier Méhu
Technical & hardware support : Manuel Goepfert

Contact : metmap@orbifly.com




SOURCES & CREDITS :

   NOAA       Earth
Advisory